createdAt,value
2019-02-04T00:00:08.889Z,5.70
2019-02-04T00:05:12.913Z,5.70
2019-02-04T00:10:16.932Z,6.00
2019-02-04T00:15:20.947Z,5.70
2019-02-04T00:20:24.887Z,5.60
2019-02-04T00:25:28.838Z,5.70
2019-02-04T00:30:33.156Z,5.60
2019-02-04T00:35:37.124Z,5.70
2019-02-04T00:40:41.085Z,5.80
2019-02-04T00:45:45.059Z,5.60
2019-02-04T00:50:48.961Z,5.80
2019-02-04T00:55:52.983Z,5.70
2019-02-04T01:00:57.023Z,5.80
2019-02-04T01:06:01.415Z,5.70
2019-02-04T01:11:06.455Z,5.70
2019-02-04T01:16:10.503Z,5.70
2019-02-04T01:21:14.596Z,5.70
2019-02-04T01:26:18.634Z,5.70
2019-02-04T01:31:22.507Z,5.70
2019-02-04T01:36:26.451Z,5.70
2019-02-04T01:41:33.159Z,5.60
2019-02-04T01:46:36.439Z,5.70
2019-02-04T01:51:40.367Z,5.50
2019-02-04T01:56:45.052Z,5.50
2019-02-04T02:01:49.156Z,5.70
2019-02-04T02:06:53.183Z,5.70
2019-02-04T02:11:57.320Z,5.70
2019-02-04T02:17:01.631Z,5.70
2019-02-04T02:22:05.624Z,5.80
2019-02-04T02:27:09.727Z,5.50
2019-02-04T02:32:13.757Z,5.50
2019-02-04T02:37:17.672Z,5.50
2019-02-04T02:42:21.711Z,5.70
2019-02-04T02:47:25.554Z,5.50
2019-02-04T02:52:31.110Z,5.60
2019-02-04T02:57:35.031Z,5.80
2019-02-04T03:02:38.895Z,5.50
2019-02-04T03:07:42.920Z,5.50
2019-02-04T03:12:47.147Z,5.50
2019-02-04T03:17:52.610Z,5.30
2019-02-04T03:22:56.872Z,5.50
2019-02-04T03:28:01.135Z,5.70
2019-02-04T03:33:05.757Z,5.50
2019-02-04T03:38:09.679Z,5.50
2019-02-04T03:43:13.619Z,5.70
2019-02-04T03:48:17.551Z,5.50
2019-02-04T03:53:21.400Z,5.70
2019-02-04T03:58:25.323Z,5.70
2019-02-04T04:03:29.335Z,5.70
2019-02-04T04:08:33.271Z,5.70
2019-02-04T04:13:37.148Z,5.70
2019-02-04T04:18:41.076Z,5.70
2019-02-04T04:23:45.000Z,5.70
2019-02-04T04:28:48.924Z,5.70
2019-02-04T04:33:52.868Z,5.80
2019-02-04T04:38:57.075Z,5.70
2019-02-04T04:44:00.932Z,5.80
2019-02-04T04:49:05.287Z,5.70
2019-02-04T04:54:09.156Z,5.70
2019-02-04T04:59:13.088Z,5.70
2019-02-04T05:04:16.927Z,5.50
2019-02-04T05:09:20.775Z,5.70
2019-02-04T05:14:24.659Z,5.50
2019-02-04T05:19:28.501Z,5.50
2019-02-04T05:24:32.335Z,5.70
2019-02-04T05:29:36.172Z,5.50
2019-02-04T05:34:40.154Z,5.40
2019-02-04T05:39:44.431Z,5.50
2019-02-04T05:44:48.388Z,5.50
2019-02-04T05:49:52.304Z,5.40
2019-02-04T05:54:56.211Z,5.40
2019-02-04T06:00:00.056Z,5.70
2019-02-04T06:05:04.927Z,5.80
2019-02-04T06:10:09.131Z,5.50
2019-02-04T06:15:13.354Z,5.50
2019-02-04T06:20:20.236Z,5.60
2019-02-04T06:25:24.070Z,5.40
2019-02-04T06:30:28.041Z,5.50
2019-02-04T06:35:31.991Z,5.50
2019-02-04T06:40:35.904Z,5.40
2019-02-04T06:45:39.739Z,5.40
2019-02-04T06:50:43.759Z,5.40
2019-02-04T06:55:47.708Z,5.50
2019-02-04T07:00:51.544Z,5.40
2019-02-04T07:05:55.528Z,5.50
2019-02-04T07:10:59.507Z,5.40
2019-02-04T07:16:03.351Z,5.40
2019-02-04T07:21:07.355Z,5.50
2019-02-04T07:26:11.339Z,5.40
2019-02-04T07:31:15.252Z,5.50
2019-02-04T07:36:19.187Z,5.50
2019-02-04T07:41:23.034Z,5.40
2019-02-04T07:46:26.973Z,5.40
2019-02-04T07:51:31.356Z,5.50
2019-02-04T07:56:35.227Z,5.50
2019-02-04T08:01:39.143Z,5.40
2019-02-04T08:06:43.007Z,5.40
2019-02-04T08:11:46.840Z,5.50
2019-02-04T08:16:50.739Z,5.50
2019-02-04T08:21:54.716Z,5.40
2019-02-04T08:26:58.556Z,5.50
2019-02-04T08:32:02.548Z,5.50
2019-02-04T08:37:06.446Z,5.50
2019-02-04T08:42:10.507Z,5.50
2019-02-04T08:47:22.535Z,5.50
2019-02-04T08:52:20.063Z,5.60
2019-02-04T08:57:24.148Z,5.40
2019-02-04T09:02:27.986Z,5.50
2019-02-04T09:07:31.812Z,5.30
2019-02-04T09:12:35.648Z,5.50
2019-02-04T09:17:39.659Z,5.50
2019-02-04T09:22:43.672Z,5.70
2019-02-04T09:27:47.495Z,5.70
2019-02-04T09:32:52.046Z,5.70
2019-02-04T09:37:56.175Z,5.80
2019-02-04T09:43:00.153Z,5.70
2019-02-04T09:48:05.172Z,5.80
2019-02-04T09:53:09.211Z,5.60
2019-02-04T09:58:13.112Z,5.70
2019-02-04T10:03:17.041Z,5.80
2019-02-04T10:08:21.386Z,5.70
2019-02-04T10:13:25.287Z,5.80
2019-02-04T10:18:29.137Z,5.90
2019-02-04T10:23:33.136Z,5.70
2019-02-04T10:28:37.225Z,5.80
2019-02-04T10:33:41.116Z,5.80
2019-02-04T10:38:49.607Z,5.90
2019-02-04T10:43:57.019Z,5.80
2019-02-04T10:49:00.949Z,6.00
2019-02-04T10:54:06.494Z,5.70
2019-02-04T10:59:10.472Z,5.70
2019-02-04T11:04:14.435Z,6.00
2019-02-04T11:09:18.338Z,6.10
2019-02-04T11:14:22.411Z,5.90
2019-02-04T11:19:26.870Z,6.20
2019-02-04T11:24:30.740Z,6.00
2019-02-04T11:29:34.645Z,6.10
2019-02-04T11:34:38.530Z,5.90
2019-02-04T11:39:42.454Z,6.00
2019-02-04T11:44:46.451Z,6.00
2019-02-04T11:49:50.527Z,6.00
2019-02-04T11:54:54.827Z,6.40
2019-02-04T11:59:58.687Z,6.00
2019-02-04T12:05:02.661Z,6.00
2019-02-04T12:10:08.549Z,6.30
2019-02-04T12:15:14.407Z,6.30
2019-02-04T12:20:18.457Z,6.30
2019-02-04T12:25:23.920Z,6.50
2019-02-04T12:30:33.794Z,6.40
2019-02-04T12:35:37.848Z,6.30
2019-02-04T12:40:41.823Z,6.30
2019-02-04T12:45:46.232Z,7.20
2019-02-04T12:50:50.215Z,6.60
2019-02-04T12:55:54.115Z,6.60
2019-02-04T13:00:57.944Z,6.50
2019-02-04T13:06:03.084Z,6.60
2019-02-04T13:11:07.078Z,6.50
2019-02-04T13:16:11.070Z,6.70
2019-02-04T13:21:14.903Z,6.50
2019-02-04T13:26:18.809Z,6.60
2019-02-04T13:31:22.712Z,6.50
2019-02-04T13:36:26.613Z,6.80
2019-02-04T13:41:30.538Z,6.60
2019-02-04T13:46:34.456Z,6.50
2019-02-04T13:51:38.427Z,6.50
2019-02-04T13:56:42.315Z,6.70
2019-02-04T14:01:46.319Z,6.80
2019-02-04T14:06:50.491Z,6.80
2019-02-04T14:11:54.421Z,6.60
2019-02-04T14:16:58.388Z,6.60
2019-02-04T14:22:09.482Z,6.60
2019-02-04T14:27:07.997Z,6.50
2019-02-04T14:32:11.975Z,6.70
2019-02-04T14:37:15.987Z,10.00
2019-02-04T14:42:20.287Z,10.90
2019-02-04T14:47:46.626Z,11.10
2019-02-04T14:53:34.995Z,9.50
2019-02-04T14:59:13.004Z,8.50
2019-02-04T15:04:26.662Z,8.10
2019-02-04T15:09:56.404Z,8.00
2019-02-04T15:15:27.488Z,8.00
2019-02-04T15:21:11.189Z,8.00
2019-02-04T15:26:28.912Z,7.70
2019-02-04T15:32:15.026Z,7.50
2019-02-04T15:37:32.938Z,7.50
2019-02-04T15:43:16.665Z,7.50
2019-02-04T15:48:34.903Z,7.20
2019-02-04T15:53:38.843Z,7.40
2019-02-04T15:58:42.691Z,7.50
2019-02-04T16:03:46.613Z,7.30
2019-02-04T16:08:50.452Z,7.40
2019-02-04T16:13:54.374Z,7.40
2019-02-04T16:18:58.225Z,7.50
2019-02-04T16:24:02.436Z,7.40
2019-02-04T16:29:06.423Z,7.50
2019-02-04T16:34:10.564Z,7.40
2019-02-04T16:39:14.785Z,7.30
2019-02-04T16:44:18.856Z,7.50
2019-02-04T16:49:23.081Z,6.90
2019-02-04T16:54:27.252Z,7.40
2019-02-04T16:59:31.378Z,6.90
2019-02-04T17:04:35.503Z,7.40
2019-02-04T17:09:39.561Z,6.90
2019-02-04T17:14:43.555Z,7.30
2019-02-04T17:19:47.404Z,6.90
2019-02-04T17:24:51.735Z,7.10
2019-02-04T17:29:55.732Z,7.20
2019-02-04T17:34:59.585Z,6.90
2019-02-04T17:40:04.381Z,7.10
2019-02-04T17:45:11.623Z,7.00
2019-02-04T17:50:17.448Z,7.10
2019-02-04T17:55:22.996Z,7.20
2019-02-04T18:00:39.663Z,6.80
2019-02-04T18:05:43.555Z,6.90
2019-02-04T18:10:48.113Z,6.80
2019-02-04T18:15:52.072Z,6.90
2019-02-04T18:20:55.905Z,7.20
2019-02-04T18:25:59.824Z,7.10
2019-02-04T18:31:04.061Z,6.80
2019-02-04T18:36:08.042Z,6.90
2019-02-04T18:41:11.947Z,6.80
2019-02-04T18:46:15.929Z,6.80
2019-02-04T18:51:20.261Z,6.90
2019-02-04T18:56:24.163Z,6.80
2019-02-04T19:01:28.067Z,6.90
2019-02-04T19:06:32.022Z,6.90
2019-02-04T19:11:35.992Z,6.80
2019-02-04T19:16:39.923Z,7.10
2019-02-04T19:21:44.216Z,7.10
2019-02-04T19:26:48.256Z,6.90
2019-02-04T19:31:52.155Z,7.20
2019-02-04T19:36:56.088Z,6.80
2019-02-04T19:42:00.010Z,6.90
2019-02-04T19:47:04.266Z,6.80
2019-02-04T19:52:08.253Z,6.80
2019-02-04T19:57:12.100Z,6.90
2019-02-04T20:02:16.083Z,7.10
2019-02-04T20:07:19.928Z,7.10
2019-02-04T20:12:23.923Z,7.00
2019-02-04T20:17:27.785Z,6.80
2019-02-04T20:22:31.707Z,6.90
2019-02-04T20:27:35.608Z,6.90
2019-02-04T20:32:39.608Z,6.80
2019-02-04T20:37:43.588Z,6.80
2019-02-04T20:42:47.527Z,7.10
2019-02-04T20:47:51.481Z,7.10
2019-02-04T20:52:55.507Z,7.10
2019-02-04T20:57:59.550Z,6.80
2019-02-04T21:03:03.464Z,7.20
2019-02-04T21:08:08.051Z,6.90
2019-02-04T21:13:12.464Z,7.10
2019-02-04T21:18:16.387Z,7.00
2019-02-04T21:23:20.368Z,7.10
2019-02-04T21:28:24.275Z,6.90
2019-02-04T21:33:28.263Z,6.90
2019-02-04T21:38:32.112Z,7.20
2019-02-04T21:43:35.947Z,6.90
2019-02-04T21:48:40.080Z,7.10
2019-02-04T21:53:44.064Z,6.80
2019-02-04T21:58:47.915Z,6.80
2019-02-04T22:03:51.852Z,7.10
2019-02-04T22:08:55.772Z,6.80
2019-02-04T22:13:59.716Z,7.10
2019-02-04T22:19:03.629Z,7.10
2019-02-04T22:24:07.551Z,6.90
2019-02-04T22:29:11.386Z,7.20
2019-02-04T22:34:15.225Z,7.20
2019-02-04T22:39:19.140Z,7.10
2019-02-04T22:44:23.628Z,6.90
2019-02-04T22:49:27.556Z,6.90
2019-02-04T22:54:31.403Z,7.00
2019-02-04T22:59:35.256Z,6.90
2019-02-04T23:04:39.215Z,6.90
2019-02-04T23:09:43.195Z,6.90
2019-02-04T23:14:47.143Z,7.00
2019-02-04T23:19:50.996Z,6.80
2019-02-04T23:24:54.831Z,6.80
2019-02-04T23:29:58.754Z,7.20
2019-02-04T23:35:02.680Z,7.10
2019-02-04T23:40:07.095Z,7.10
2019-02-04T23:45:11.527Z,6.80
2019-02-04T23:50:15.755Z,6.90
2019-02-04T23:55:19.695Z,7.10
